メインページ
METAR-TAF:

METAR-TAF

空港 :

ドバイ国際空港

ドバイ, アラブ首長国連邦

緯度: 25-15-10N, 経度: 055-21-52E, 海抜: 8m

現時点の気象観測

当レポートは19分前の04:00(UTC)に作成
の風 12kt、南/南東から南西の間で変化する
気温 33°C
湿度 26%
気圧 1007 hPa
視程10km以上
1,500メートル以下は雲なし、積乱雲なし

METAR: OMDB 220400Z 19012KT 160V220 CAVOK 33/11 Q1007 NOSIG

時間: 08:19 (04:19 UTC)

予報

当レポートは5時間24分前の22:55(UTC)に作成
予報は22日の 00時(UTC)から 23日の 06時(UTC)まで有効
の風 7kt
視程10km以上
1,500メートル以下は雲なし、積乱雲なし
22日の 03時(UTC)から 22日の 05時(UTC)まで徐々に
南/南西の風 13kt
22日の 08時(UTC)から 22日の 10時(UTC)まで徐々に
西/北西の風 13kt
22日の 15時(UTC)から 22日の 17時(UTC)まで徐々に
東/北東の風 5kt
22日の 20時(UTC)から 22日の 22時(UTC)まで徐々に
西/北西の風 12kt

TAF: OMDB 212255Z 2200/2306 09007KT CAVOK BECMG 2203/2205 20013KT BECMG 2208/2210 30013KT BECMG 2215/2217 07005KT BECMG 2220/2222 29012KT

4,000以上の空港の気象観測と天気予報(METAR報とTAF報)

利用可能な観測所は地図上に黄色い丸と赤い丸で示す。

丸の上にカーソルを重ねると観測所名を参照できる。

次にクリックすると気象観測と天気予報を参照できる。

マップの切り替え:黒色「×」印の緑ボタンをクリックして拡大、「-」印の緑ボタンをクリックして縮小、緑色の三角印をクリックして隣りの地図に切り替え


METAR-TAF: